ARG1019 SARE-SARI
Flight info
| Callsign | ARG1019 |
|---|---|
| Flight time | N/A |
| Altitude | 25000 |
| Route | LUTSO2C LUTSO UP779 POS |
| Aircraft | B738/M-SDE2E3FGHIRWXY/LB1 |
Departure
| Time | 2026-04-25 21:52 |
|---|---|
| Airport | Resistencia International Airport (SARE) |
Arrival
| Time | N/A |
|---|---|
| Airport | Cataratas Del Iguazú International Airport (SARI) |
| Time | Latitude | Longitude | Altitude | Speed | Heading |
|---|---|---|---|---|---|
| 2026-04-25 21:46 | -27.44579 | -59.04967 | 192 ft | 0 kts | 117° |
| 2026-04-25 21:47 | -27.44579 | -59.04952 | 202 ft | 1 kts | 62° |
| 2026-04-25 21:47 | -27.44556 | -59.04974 | 205 ft | 13 kts | 270° |
| 2026-04-25 21:48 | -27.44592 | -59.05097 | 200 ft | 25 kts | 250° |
| 2026-04-25 21:48 | -27.44688 | -59.05283 | 201 ft | 28 kts | 228° |
| 2026-04-25 21:48 | -27.44750 | -59.05377 | 199 ft | 0 kts | 299° |
| 2026-04-25 21:48 | -27.44700 | -59.05353 | 202 ft | 16 kts | 59° |
| 2026-04-25 21:49 | -27.44717 | -59.05342 | 196 ft | 8 kts | 215° |
| 2026-04-25 21:49 | -27.44747 | -59.05434 | 192 ft | 18 kts | 280° |
| 2026-04-25 21:49 | -27.44634 | -59.05461 | 193 ft | 25 kts | 28° |
| 2026-04-25 21:49 | -27.44413 | -59.05358 | 191 ft | 43 kts | 21° |
| 2026-04-25 21:50 | -27.44101 | -59.05224 | 197 ft | 45 kts | 21° |
| 2026-04-25 21:50 | -27.43962 | -59.05136 | 200 ft | 15 kts | 36° |
| 2026-04-25 21:50 | -27.43885 | -59.05097 | 201 ft | 6 kts | 317° |
| 2026-04-25 21:50 | -27.43885 | -59.05139 | 194 ft | 10 kts | 239° |
| 2026-04-25 21:51 | -27.43972 | -59.05168 | 201 ft | 28 kts | 194° |
| 2026-04-25 21:51 | -27.44476 | -59.05382 | 200 ft | 123 kts | 201° |
| 2026-04-25 21:51 | -27.45511 | -59.05820 | 375 ft | 178 kts | 200° |
| 2026-04-25 21:51 | -27.46788 | -59.06416 | 766 ft | 226 kts | 205° |
| 2026-04-25 21:52 | -27.48163 | -59.07334 | 1678 ft | 234 kts | 207° |
| 2026-04-25 21:52 | -27.49701 | -59.07922 | 2635 ft | 236 kts | 195° |
| 2026-04-25 21:52 | -27.51332 | -59.08481 | 3216 ft | 252 kts | 197° |
| 2026-04-25 21:52 | -27.53034 | -59.09116 | 4003 ft | 262 kts | 199° |
| 2026-04-25 21:53 | -27.54768 | -59.09818 | 5037 ft | 267 kts | 201° |
| 2026-04-25 21:53 | -27.56522 | -59.10553 | 6059 ft | 271 kts | 201° |
| 2026-04-25 21:53 | -27.58387 | -59.10936 | 6637 ft | 278 kts | 176° |
| 2026-04-25 21:53 | -27.60231 | -59.10266 | 6913 ft | 285 kts | 148° |
| 2026-04-25 21:54 | -27.61583 | -59.08646 | 6941 ft | 288 kts | 117° |
| 2026-04-25 21:54 | -27.62081 | -59.06479 | 6956 ft | 287 kts | 94° |
| 2026-04-25 21:54 | -27.62185 | -59.04223 | 6951 ft | 289 kts | 91° |
| 2026-04-25 21:54 | -27.62239 | -59.01956 | 6946 ft | 290 kts | 91° |
| 2026-04-25 21:55 | -27.62291 | -58.99683 | 6945 ft | 290 kts | 91° |
| 2026-04-25 21:55 | -27.62348 | -58.97440 | 6950 ft | 290 kts | 91° |
| 2026-04-25 21:55 | -27.62414 | -58.95165 | 6941 ft | 290 kts | 91° |
| 2026-04-25 21:55 | -27.62485 | -58.92891 | 6931 ft | 290 kts | 91° |
| 2026-04-25 21:56 | -27.62559 | -58.90624 | 6941 ft | 288 kts | 92° |
| 2026-04-25 21:56 | -27.62610 | -58.89101 | 6946 ft | 288 kts | 91° |
| 2026-04-25 21:56 | -27.62712 | -58.86116 | 6944 ft | 287 kts | 92° |
| 2026-04-25 21:56 | -27.62789 | -58.83872 | 6944 ft | 286 kts | 92° |
| 2026-04-25 21:57 | -27.62865 | -58.81630 | 6944 ft | 286 kts | 91° |
| 2026-04-25 21:57 | -27.62941 | -58.79387 | 6946 ft | 286 kts | 91° |
| 2026-04-25 21:57 | -27.62985 | -58.77144 | 6938 ft | 286 kts | 85° |
| 2026-04-25 21:57 | -27.62567 | -58.74937 | 7123 ft | 292 kts | 73° |
| 2026-04-25 21:58 | -27.61989 | -58.72716 | 8016 ft | 296 kts | 72° |
| 2026-04-25 21:58 | -27.61393 | -58.70464 | 8956 ft | 303 kts | 71° |
| 2026-04-25 21:58 | -27.60778 | -58.68149 | 9614 ft | 311 kts | 70° |
| 2026-04-25 21:58 | -27.60155 | -58.65797 | 9923 ft | 315 kts | 70° |
| 2026-04-25 21:59 | -27.59528 | -58.63420 | 9931 ft | 317 kts | 70° |
| 2026-04-25 21:59 | -27.58901 | -58.61040 | 9940 ft | 316 kts | 70° |
| 2026-04-25 21:59 | -27.58284 | -58.58689 | 10322 ft | 312 kts | 70° |
| 2026-04-25 22:00 | -27.57029 | -58.53923 | 11867 ft | 325 kts | 70° |
| 2026-04-25 22:00 | -27.56383 | -58.51468 | 12745 ft | 329 kts | 69° |
| 2026-04-25 22:00 | -27.55725 | -58.48973 | 13588 ft | 335 kts | 69° |
| 2026-04-25 22:00 | -27.55057 | -58.46441 | 14333 ft | 339 kts | 69° |
| 2026-04-25 22:01 | -27.54379 | -58.43875 | 15019 ft | 344 kts | 69° |
| 2026-04-25 22:01 | -27.53692 | -58.41275 | 15727 ft | 348 kts | 70° |
| 2026-04-25 22:01 | -27.52997 | -58.38641 | 16451 ft | 352 kts | 70° |
| 2026-04-25 22:01 | -27.52533 | -58.36884 | 16939 ft | 355 kts | 70° |
| 2026-04-25 22:02 | -27.51582 | -58.33280 | 17905 ft | 362 kts | 70° |
| 2026-04-25 22:02 | -27.50860 | -58.30552 | 18543 ft | 366 kts | 70° |
| 2026-04-25 22:02 | -27.50126 | -58.27782 | 19099 ft | 372 kts | 70° |
| 2026-04-25 22:02 | -27.49378 | -58.24965 | 19621 ft | 378 kts | 70° |
| 2026-04-25 22:03 | -27.48620 | -58.22109 | 20152 ft | 384 kts | 69° |
| 2026-04-25 22:03 | -27.47847 | -58.19201 | 20689 ft | 390 kts | 69° |
| 2026-04-25 22:03 | -27.47074 | -58.16289 | 21222 ft | 395 kts | 69° |
| 2026-04-25 22:03 | -27.46278 | -58.13296 | 21735 ft | 401 kts | 69° |
| 2026-04-25 22:04 | -27.45470 | -58.10259 | 22230 ft | 407 kts | 69° |
| 2026-04-25 22:04 | -27.44650 | -58.07183 | 22753 ft | 412 kts | 69° |
| 2026-04-25 22:04 | -27.43821 | -58.04077 | 23261 ft | 417 kts | 69° |
| 2026-04-25 22:04 | -27.42885 | -58.00972 | 23719 ft | 419 kts | 62° |
| 2026-04-25 22:05 | -27.41738 | -57.97947 | 24118 ft | 423 kts | 60° |
| 2026-04-25 22:05 | -27.40505 | -57.94901 | 24379 ft | 432 kts | 59° |
| 2026-04-25 22:05 | -27.39231 | -57.91796 | 24692 ft | 440 kts | 60° |
| 2026-04-25 22:05 | -27.38086 | -57.88575 | 24990 ft | 451 kts | 65° |
| 2026-04-25 22:06 | -27.37134 | -57.85131 | 24952 ft | 469 kts | 71° |
| 2026-04-25 22:06 | -27.36410 | -57.81489 | 24958 ft | 484 kts | 76° |
| 2026-04-25 22:06 | -27.35931 | -57.77683 | 24964 ft | 498 kts | 82° |
| 2026-04-25 22:06 | -27.35711 | -57.73756 | 24959 ft | 509 kts | 87° |
| 2026-04-25 22:07 | -27.35759 | -57.69733 | 24953 ft | 519 kts | 92° |
| 2026-04-25 22:07 | -27.35943 | -57.67030 | 24951 ft | 524 kts | 95° |
| 2026-04-25 22:07 | -27.36660 | -57.61702 | 24922 ft | 509 kts | 102° |
| 2026-04-25 22:07 | -27.37120 | -57.57840 | 24909 ft | 488 kts | 86° |
| 2026-04-25 22:08 | -27.36543 | -57.54199 | 24927 ft | 461 kts | 64° |
| 2026-04-25 22:08 | -27.35099 | -57.51120 | 24951 ft | 434 kts | 51° |
| 2026-04-25 22:08 | -27.33533 | -57.48268 | 24930 ft | 423 kts | 51° |
| 2026-04-25 22:08 | -27.31993 | -57.45436 | 24951 ft | 431 kts | 51° |
| 2026-04-25 22:09 | -27.30404 | -57.42532 | 24946 ft | 438 kts | 51° |
| 2026-04-25 22:09 | -27.28806 | -57.39618 | 24937 ft | 438 kts | 51° |
| 2026-04-25 22:09 | -27.27210 | -57.36708 | 24936 ft | 437 kts | 51° |
| 2026-04-25 22:09 | -27.25612 | -57.33798 | 24936 ft | 437 kts | 51° |
| 2026-04-25 22:10 | -27.24015 | -57.30891 | 24935 ft | 436 kts | 51° |
| 2026-04-25 22:10 | -27.22419 | -57.27989 | 24938 ft | 436 kts | 51° |
| 2026-04-25 22:10 | -27.20844 | -57.25131 | 24939 ft | 436 kts | 51° |
| 2026-04-25 22:10 | -27.19248 | -57.22235 | 24938 ft | 436 kts | 51° |
| 2026-04-25 22:11 | -27.17648 | -57.19335 | 24945 ft | 436 kts | 51° |
| 2026-04-25 22:11 | -27.16050 | -57.16444 | 24937 ft | 436 kts | 51° |
| 2026-04-25 22:11 | -27.14446 | -57.13544 | 24935 ft | 436 kts | 51° |
| 2026-04-25 22:11 | -27.12844 | -57.10652 | 24934 ft | 436 kts | 51° |
| 2026-04-25 22:12 | -27.11240 | -57.07761 | 24941 ft | 436 kts | 51° |
| 2026-04-25 22:12 | -27.09636 | -57.04872 | 24934 ft | 436 kts | 51° |
| 2026-04-25 22:12 | -27.07937 | -57.02065 | 24928 ft | 430 kts | 43° |
| 2026-04-25 22:12 | -27.06626 | -57.00417 | 24951 ft | 425 kts | 38° |
| 2026-04-25 22:13 | -27.03808 | -56.97330 | 24936 ft | 423 kts | 35° |
| 2026-04-25 22:13 | -27.01745 | -56.94992 | 24925 ft | 428 kts | 40° |
| 2026-04-25 22:13 | -26.99832 | -56.92400 | 24935 ft | 434 kts | 46° |
| 2026-04-25 22:13 | -26.98124 | -56.89576 | 24932 ft | 439 kts | 52° |
| 2026-04-25 22:14 | -26.96600 | -56.86598 | 24940 ft | 442 kts | 56° |
| 2026-04-25 22:14 | -26.95198 | -56.83506 | 24941 ft | 444 kts | 58° |
| 2026-04-25 22:14 | -26.93871 | -56.80364 | 24937 ft | 446 kts | 59° |
| 2026-04-25 22:14 | -26.92583 | -56.77207 | 24931 ft | 446 kts | 60° |
| 2026-04-25 22:15 | -26.91302 | -56.74032 | 24928 ft | 447 kts | 60° |
| 2026-04-25 22:15 | -26.90020 | -56.70859 | 24931 ft | 447 kts | 60° |
| 2026-04-25 22:15 | -26.88752 | -56.67736 | 24935 ft | 447 kts | 59° |
| 2026-04-25 22:16 | -26.86158 | -56.61404 | 24930 ft | 447 kts | 59° |
| 2026-04-25 22:16 | -26.84853 | -56.58240 | 24932 ft | 447 kts | 59° |
| 2026-04-25 22:16 | -26.83550 | -56.55086 | 24934 ft | 447 kts | 59° |
| 2026-04-25 22:16 | -26.82241 | -56.51919 | 24937 ft | 446 kts | 59° |
| 2026-04-25 22:17 | -26.80933 | -56.48762 | 24934 ft | 446 kts | 59° |
| 2026-04-25 22:17 | -26.79627 | -56.45611 | 24936 ft | 446 kts | 59° |
| 2026-04-25 22:17 | -26.78320 | -56.42458 | 24938 ft | 446 kts | 59° |
| 2026-04-25 22:17 | -26.77015 | -56.39313 | 24931 ft | 445 kts | 59° |
| 2026-04-25 22:18 | -26.75727 | -56.36209 | 24932 ft | 445 kts | 59° |
| 2026-04-25 22:18 | -26.74423 | -56.33071 | 24932 ft | 444 kts | 60° |
| 2026-04-25 22:18 | -26.73122 | -56.29940 | 24931 ft | 444 kts | 59° |
| 2026-04-25 22:18 | -26.71816 | -56.26803 | 24931 ft | 444 kts | 59° |
| 2026-04-25 22:19 | -26.70515 | -56.23678 | 24936 ft | 443 kts | 60° |
| 2026-04-25 22:19 | -26.69651 | -56.21606 | 24935 ft | 443 kts | 60° |
| 2026-04-25 22:19 | -26.67906 | -56.17420 | 24932 ft | 443 kts | 60° |
| 2026-04-25 22:19 | -26.66605 | -56.14304 | 24935 ft | 442 kts | 60° |
| 2026-04-25 22:20 | -26.65305 | -56.11192 | 24937 ft | 442 kts | 60° |
| 2026-04-25 22:20 | -26.64002 | -56.08075 | 24939 ft | 442 kts | 60° |
| 2026-04-25 22:20 | -26.62700 | -56.04963 | 24935 ft | 442 kts | 60° |
| 2026-04-25 22:20 | -26.61414 | -56.01891 | 24931 ft | 442 kts | 60° |
| 2026-04-25 22:21 | -26.60534 | -55.99790 | 24932 ft | 442 kts | 60° |
| 2026-04-25 22:21 | -26.59231 | -55.96682 | 24931 ft | 442 kts | 60° |
| 2026-04-25 22:21 | -26.57504 | -55.92565 | 24935 ft | 441 kts | 60° |
| 2026-04-25 22:21 | -26.56202 | -55.89464 | 24936 ft | 441 kts | 60° |
| 2026-04-25 22:22 | -26.54897 | -55.86357 | 24937 ft | 441 kts | 60° |
| 2026-04-25 22:22 | -26.54014 | -55.84258 | 24938 ft | 441 kts | 60° |
| 2026-04-25 22:22 | -26.52707 | -55.81152 | 24934 ft | 442 kts | 60° |
| 2026-04-25 22:22 | -26.51402 | -55.78053 | 24934 ft | 441 kts | 60° |
| 2026-04-25 22:23 | -26.50095 | -55.74948 | 24926 ft | 441 kts | 60° |
| 2026-04-25 22:23 | -26.48801 | -55.71879 | 24603 ft | 442 kts | 60° |
| 2026-04-25 22:23 | -26.47497 | -55.68786 | 24239 ft | 439 kts | 60° |
| 2026-04-25 22:23 | -26.46199 | -55.65712 | 23830 ft | 437 kts | 60° |
| 2026-04-25 22:24 | -26.44903 | -55.62642 | 23371 ft | 436 kts | 60° |
| 2026-04-25 22:24 | -26.43608 | -55.59582 | 22877 ft | 434 kts | 60° |
| 2026-04-25 22:24 | -26.42322 | -55.56542 | 22419 ft | 432 kts | 60° |
| 2026-04-25 22:24 | -26.41043 | -55.53519 | 21973 ft | 429 kts | 60° |
| 2026-04-25 22:25 | -26.39792 | -55.50567 | 21551 ft | 425 kts | 60° |
| 2026-04-25 22:25 | -26.38535 | -55.47602 | 21106 ft | 417 kts | 60° |
| 2026-04-25 22:25 | -26.37301 | -55.44692 | 20698 ft | 413 kts | 60° |
| 2026-04-25 22:25 | -26.36075 | -55.41804 | 20285 ft | 411 kts | 60° |
| 2026-04-25 22:26 | -26.34853 | -55.38930 | 19871 ft | 408 kts | 60° |
| 2026-04-25 22:26 | -26.33640 | -55.36080 | 19437 ft | 406 kts | 61° |
| 2026-04-25 22:26 | -26.32433 | -55.33244 | 19029 ft | 401 kts | 61° |
| 2026-04-25 22:26 | -26.31254 | -55.30473 | 18618 ft | 390 kts | 61° |
| 2026-04-25 22:27 | -26.30094 | -55.27748 | 18217 ft | 388 kts | 61° |
| 2026-04-25 22:27 | -26.28936 | -55.25034 | 17734 ft | 386 kts | 61° |
| 2026-04-25 22:27 | -26.27786 | -55.22339 | 17321 ft | 384 kts | 61° |
| 2026-04-25 22:27 | -26.26654 | -55.19690 | 16917 ft | 381 kts | 61° |
| 2026-04-25 22:28 | -26.25525 | -55.17046 | 16495 ft | 373 kts | 61° |
| 2026-04-25 22:28 | -26.24422 | -55.14450 | 16092 ft | 369 kts | 61° |
| 2026-04-25 22:28 | -26.23328 | -55.11873 | 15702 ft | 366 kts | 61° |
| 2026-04-25 22:28 | -26.22229 | -55.09336 | 15292 ft | 362 kts | 59° |
| 2026-04-25 22:29 | -26.20909 | -55.06961 | 14758 ft | 359 kts | 48° |
| 2026-04-25 22:29 | -26.19171 | -55.04972 | 13994 ft | 360 kts | 33° |
| 2026-04-25 22:29 | -26.16976 | -55.03594 | 12877 ft | 368 kts | 18° |
| 2026-04-25 22:30 | -26.13588 | -55.01312 | 12181 ft | 386 kts | 36° |